Time;durP1;ratioP1;P1;durP2;ratioP2;P2;SDS_P1;SDS_P2;PMS_P1;PMS_P2;Temp;Humidity;BMP_temperature;BMP_pressure;BME280_temperature;BME280_humidity;BME280_pressure;Samples;Min_cycle;Max_cycle;Signal;HPM_P1;HPM_P2
2021/04/25 00:00:41;;;;;;;;;;;5.20;85.00;;;;;;5031767;28;19909;-72
2021/04/25 00:03:07;;;;;;;;;;;5.10;85.40;;;;;;5018118;28;19963;-72
2021/04/25 00:05:32;;;;;;;;;;;5.00;85.70;;;;;;5034867;28;19913;-71
2021/04/25 00:07:58;;;;;;;;;;;4.90;86.20;;;;;;5031440;28;19922;-73
2021/04/25 00:10:24;;;;;;;;;;;4.80;87.00;;;;;;5036352;28;20217;-73
2021/04/25 00:12:51;;;;;;;;;;;4.80;86.70;;;;;;5021425;28;20408;-73
2021/04/25 00:15:19;;;;;;;;;;;4.70;87.00;;;;;;5016205;28;19921;-71
2021/04/25 00:17:45;;;;;;;;;;;4.70;87.10;;;;;;5035978;28;19920;-71
2021/04/25 00:20:12;;;;;;;;;;;4.60;87.60;;;;;;5018948;28;19910;-73
2021/04/25 00:22:37;;;;;;;;;;;4.70;87.40;;;;;;5027763;28;19917;-72
2021/04/25 00:25:03;;;;;;;;;;;4.70;87.80;;;;;;5033603;28;19924;-75
2021/04/25 00:27:29;;;;;;;;;;;4.70;87.70;;;;;;5034404;28;19964;-73
2021/04/25 00:29:54;;;;;;;;;;;4.60;87.80;;;;;;5016285;28;20265;-71
2021/04/25 00:32:20;;;;;;;;;;;4.60;87.80;;;;;;5034098;28;19952;-73
2021/04/25 00:34:45;;;;;;;;;;;4.50;87.70;;;;;;5034591;28;19913;-72
2021/04/25 00:37:11;;;;;;;;;;;4.50;87.70;;;;;;5015729;28;19917;-72
2021/04/25 00:39:37;;;;;;;;;;;4.50;87.50;;;;;;5033439;28;20008;-73
2021/04/25 00:42:05;;;;;;;;;;;4.50;87.50;;;;;;5033248;28;19913;-73
2021/04/25 00:44:31;;;;;;;;;;;4.50;87.40;;;;;;5038505;28;19913;-73
2021/04/25 00:46:56;;;;;;;;;;;4.50;87.60;;;;;;5033006;28;19979;-73
2021/04/25 00:49:22;;;;;;;;;;;4.40;87.70;;;;;;5035302;28;19917;-72
2021/04/25 00:51:48;;;;;;;;;;;4.40;88.00;;;;;;5048610;28;20237;-73
2021/04/25 00:54:13;;;;;;;;;;;4.20;88.20;;;;;;5028659;28;19925;-71
2021/04/25 00:56:39;;;;;;;;;;;4.10;89.00;;;;;;5022612;28;20213;-72
2021/04/25 00:59:04;;;;;;;;;;;4.10;89.40;;;;;;5033751;28;20324;-72
2021/04/25 01:01:30;;;;;;;;;;;4.00;89.50;;;;;;5031974;28;19917;-73
2021/04/25 01:03:56;;;;;;;;;;;4.10;89.60;;;;;;5029906;28;19913;-73
2021/04/25 01:06:21;;;;;;;;;;;4.10;89.50;;;;;;5032270;28;19913;-73
2021/04/25 01:08:47;;;;;;;;;;;4.10;89.40;;;;;;5017334;28;19913;-72
2021/04/25 01:11:13;;;;;;;;;;;4.00;89.80;;;;;;5033239;28;19932;-73
2021/04/25 01:13:39;;;;;;;;;;;3.90;90.20;;;;;;5047860;28;19913;-73
2021/04/25 01:16:05;;;;;;;;;;;3.80;90.60;;;;;;5034677;28;20325;-71
2021/04/25 01:18:33;;;;;;;;;;;3.70;90.90;;;;;;5009385;28;19913;-72
2021/04/25 01:20:59;;;;;;;;;;;3.60;91.10;;;;;;5029934;28;19913;-71
2021/04/25 01:23:25;;;;;;;;;;;3.50;91.40;;;;;;5023514;28;19917;-72
2021/04/25 01:25:51;;;;;;;;;;;3.50;91.80;;;;;;5011269;28;19996;-72
2021/04/25 01:28:16;;;;;;;;;;;3.50;92.00;;;;;;5027946;28;19968;-71
2021/04/25 01:30:42;;;;;;;;;;;3.40;92.10;;;;;;5022677;28;20008;-71
2021/04/25 01:33:08;;;;;;;;;;;3.40;92.20;;;;;;5032547;28;19967;-73
2021/04/25 01:35:33;;;;;;;;;;;3.40;92.40;;;;;;5034314;28;19973;-73
2021/04/25 01:37:59;;;;;;;;;;;3.50;92.40;;;;;;5033921;28;19913;-72
2021/04/25 01:40:26;;;;;;;;;;;3.50;92.20;;;;;;5033017;28;19913;-72
2021/04/25 01:42:52;;;;;;;;;;;3.50;92.30;;;;;;5045016;28;19956;-73
2021/04/25 01:45:18;;;;;;;;;;;3.50;92.50;;;;;;5035775;28;19964;-73
2021/04/25 01:47:44;;;;;;;;;;;3.50;92.50;;;;;;5026922;28;19957;-73
2021/04/25 01:50:10;;;;;;;;;;;3.60;92.40;;;;;;5032114;28;19924;-73
2021/04/25 01:52:36;;;;;;;;;;;3.60;92.20;;;;;;5019862;28;19917;-72
2021/04/25 01:55:02;;;;;;;;;;;3.60;92.60;;;;;;5036920;28;19941;-73
2021/04/25 01:57:28;;;;;;;;;;;3.70;92.30;;;;;;5035115;28;20290;-73
2021/04/25 01:59:53;;;;;;;;;;;3.60;92.20;;;;;;5038906;28;19909;-73
2021/04/25 02:02:19;;;;;;;;;;;3.50;92.40;;;;;;5037981;28;19913;-73
2021/04/25 02:04:44;;;;;;;;;;;3.30;92.70;;;;;;5033243;28;19923;-72
2021/04/25 02:07:10;;;;;;;;;;;3.20;93.10;;;;;;5031465;28;19920;-73
2021/04/25 02:09:35;;;;;;;;;;;3.20;93.40;;;;;;5025930;28;20286;-73
2021/04/25 02:12:01;;;;;;;;;;;3.20;93.50;;;;;;5005172;28;19913;-73
2021/04/25 02:14:26;;;;;;;;;;;3.10;93.60;;;;;;5035977;28;19917;-73
2021/04/25 02:16:52;;;;;;;;;;;3.00;93.70;;;;;;5038007;28;19919;-73
2021/04/25 02:19:17;;;;;;;;;;;3.00;93.90;;;;;;5038113;28;20277;-73
2021/04/25 02:21:43;;;;;;;;;;;3.10;94.00;;;;;;5017346;28;20309;-73
2021/04/25 02:24:09;;;;;;;;;;;3.10;94.00;;;;;;5032603;28;19925;-73
2021/04/25 02:26:34;;;;;;;;;;;3.10;94.10;;;;;;5037742;28;19913;-73
2021/04/25 02:29:00;;;;;;;;;;;3.10;94.10;;;;;;5035879;28;19913;-72
2021/04/25 02:31:25;;;;;;;;;;;3.00;94.20;;;;;;5036731;28;19921;-72
2021/04/25 02:33:51;;;;;;;;;;;3.00;94.30;;;;;;5032282;28;19921;-73
2021/04/25 02:36:16;;;;;;;;;;;3.00;94.50;;;;;;5034330;28;19939;-73
2021/04/25 02:38:42;;;;;;;;;;;3.00;94.50;;;;;;5019119;28;19924;-72
2021/04/25 02:41:07;;;;;;;;;;;3.20;94.30;;;;;;5036594;28;19921;-73
2021/04/25 02:43:33;;;;;;;;;;;3.30;94.00;;;;;;5019756;28;20214;-73
2021/04/25 02:45:58;;;;;;;;;;;3.30;94.00;;;;;;5037420;28;19917;-73
2021/04/25 02:48:24;;;;;;;;;;;3.30;94.10;;;;;;5009912;28;19941;-73
2021/04/25 02:50:49;;;;;;;;;;;3.20;94.10;;;;;;5025964;28;19913;-73
2021/04/25 02:53:15;;;;;;;;;;;3.10;94.20;;;;;;5009493;28;20321;-73
2021/04/25 02:55:41;;;;;;;;;;;3.00;94.40;;;;;;5016686;28;20218;-72
2021/04/25 02:58:10;;;;;;;;;;;2.80;94.40;;;;;;5026735;28;20360;-72
2021/04/25 03:00:36;;;;;;;;;;;2.70;94.60;;;;;;5038005;28;19917;-74
2021/04/25 03:03:01;;;;;;;;;;;2.60;94.80;;;;;;5026446;28;20000;-72
2021/04/25 03:05:27;;;;;;;;;;;2.60;95.00;;;;;;5009192;28;19935;-73
2021/04/25 03:07:52;;;;;;;;;;;2.70;95.10;;;;;;5006007;28;19971;-73
2021/04/25 03:10:19;;;;;;;;;;;2.80;95.00;;;;;;5028782;28;20241;-73
2021/04/25 03:12:45;;;;;;;;;;;2.80;95.00;;;;;;5034892;28;19921;-72
2021/04/25 03:15:11;;;;;;;;;;;2.70;95.00;;;;;;5021769;28;19925;-73
2021/04/25 03:17:37;;;;;;;;;;;2.70;95.10;;;;;;5025056;28;19913;-72
2021/04/25 03:20:05;;;;;;;;;;;2.50;95.20;;;;;;5025823;28;19952;-72
2021/04/25 03:22:31;;;;;;;;;;;2.40;95.10;;;;;;5035045;28;19917;-73
2021/04/25 03:24:57;;;;;;;;;;;2.30;95.20;;;;;;5035720;28;19913;-73
2021/04/25 03:27:22;;;;;;;;;;;2.20;95.20;;;;;;5031226;28;19913;-73
2021/04/25 03:29:48;;;;;;;;;;;2.20;95.40;;;;;;5036589;28;19948;-73
2021/04/25 03:32:13;;;;;;;;;;;2.20;95.40;;;;;;5037976;28;20001;-73
2021/04/25 03:34:39;;;;;;;;;;;2.20;95.40;;;;;;5029833;28;19939;-72
2021/04/25 03:37:04;;;;;;;;;;;2.20;95.40;;;;;;5017373;28;19960;-75
2021/04/25 03:39:30;;;;;;;;;;;2.30;95.60;;;;;;5031810;28;19987;-73
2021/04/25 03:41:55;;;;;;;;;;;2.30;95.50;;;;;;5027587;28;19967;-72
2021/04/25 03:44:21;;;;;;;;;;;2.30;95.70;;;;;;5034803;28;19913;-73
2021/04/25 03:46:46;;;;;;;;;;;2.40;95.70;;;;;;5032814;28;19967;-72
2021/04/25 03:49:19;;;;;;;;;;;2.40;95.70;;;;;;5035634;28;20263;-72
2021/04/25 03:51:44;;;;;;;;;;;2.40;95.80;;;;;;5035084;28;19924;-74
2021/04/25 03:54:10;;;;;;;;;;;2.30;95.70;;;;;;5027961;28;19921;-73
2021/04/25 03:56:38;;;;;;;;;;;2.10;95.80;;;;;;5029660;28;19913;-73
2021/04/25 03:59:04;;;;;;;;;;;2.00;95.70;;;;;;5036850;28;19909;-73
2021/04/25 04:01:29;;;;;;;;;;;1.90;95.50;;;;;;5034837;28;19967;-73
2021/04/25 04:03:55;;;;;;;;;;;1.80;95.50;;;;;;5036768;28;20221;-72
2021/04/25 04:06:20;;;;;;;;;;;1.80;95.60;;;;;;5029944;28;19920;-73
2021/04/25 04:08:46;;;;;;;;;;;1.90;95.60;;;;;;5025698;28;19920;-73
2021/04/25 04:11:11;;;;;;;;;;;2.00;95.80;;;;;;5035357;28;19958;-73
2021/04/25 04:13:37;;;;;;;;;;;2.00;95.80;;;;;;5043215;28;19996;-73
2021/04/25 04:16:03;;;;;;;;;;;2.00;95.70;;;;;;5017276;28;19918;-72
2021/04/25 04:18:28;;;;;;;;;;;2.10;95.90;;;;;;5033919;28;19917;-72
2021/04/25 04:20:54;;;;;;;;;;;2.10;95.90;;;;;;5033918;28;20318;-72
2021/04/25 04:23:20;;;;;;;;;;;2.10;96.00;;;;;;5033608;28;20191;-71
2021/04/25 04:25:46;;;;;;;;;;;2.30;96.00;;;;;;5030386;28;19913;-72
2021/04/25 04:28:11;;;;;;;;;;;2.50;96.00;;;;;;5033533;28;19920;-73
2021/04/25 04:30:37;;;;;;;;;;;2.70;96.20;;;;;;5017146;28;19989;-73
2021/04/25 04:33:02;;;;;;;;;;;2.80;96.20;;;;;;5038341;28;19936;-73
2021/04/25 04:35:28;;;;;;;;;;;2.80;96.10;;;;;;5035115;28;20294;-73
2021/04/25 04:37:54;;;;;;;;;;;2.80;96.10;;;;;;5034056;28;20543;-75
2021/04/25 04:40:20;;;;;;;;;;;2.70;95.90;;;;;;5034935;28;19913;-73
2021/04/25 04:42:45;;;;;;;;;;;2.60;95.80;;;;;;5039183;28;20252;-72
2021/04/25 04:45:13;;;;;;;;;;;2.60;95.70;;;;;;5034176;28;19957;-73
2021/04/25 04:47:42;;;;;;;;;;;2.70;95.90;;;;;;5034676;28;19913;-73
2021/04/25 04:50:08;;;;;;;;;;;2.80;96.00;;;;;;5044058;28;19920;-72
2021/04/25 04:52:33;;;;;;;;;;;2.90;95.90;;;;;;5039735;28;20008;-73
2021/04/25 04:54:59;;;;;;;;;;;3.00;96.00;;;;;;5030222;28;19917;-73
2021/04/25 04:57:25;;;;;;;;;;;3.00;95.90;;;;;;5040429;28;19967;-72
2021/04/25 04:59:50;;;;;;;;;;;3.00;95.80;;;;;;5012887;28;19971;-73
2021/04/25 05:02:16;;;;;;;;;;;3.10;95.90;;;;;;5029217;28;20249;-73
2021/04/25 05:04:41;;;;;;;;;;;3.10;95.80;;;;;;5034111;28;19927;-73
2021/04/25 05:07:07;;;;;;;;;;;3.10;96.00;;;;;;5036180;28;19917;-72
2021/04/25 05:09:35;;;;;;;;;;;3.10;95.90;;;;;;5043246;28;19992;-72
2021/04/25 05:12:00;;;;;;;;;;;3.10;95.90;;;;;;5035487;28;19920;-71
2021/04/25 05:14:26;;;;;;;;;;;3.10;95.90;;;;;;5015553;28;19913;-73
2021/04/25 05:16:51;;;;;;;;;;;3.00;95.90;;;;;;5033990;28;20614;-75
2021/04/25 05:19:17;;;;;;;;;;;3.00;95.90;;;;;;5029857;28;20011;-74
2021/04/25 05:21:43;;;;;;;;;;;3.00;95.90;;;;;;5033148;28;19913;-72
2021/04/25 05:24:09;;;;;;;;;;;3.10;96.00;;;;;;5032103;28;19921;-73
2021/04/25 05:26:35;;;;;;;;;;;3.10;95.90;;;;;;5034894;28;19923;-72
2021/04/25 05:29:01;;;;;;;;;;;3.30;96.00;;;;;;5036008;28;19913;-73
2021/04/25 05:31:26;;;;;;;;;;;3.40;96.00;;;;;;5033000;28;19917;-73
2021/04/25 05:33:52;;;;;;;;;;;3.50;96.10;;;;;;5034419;28;19924;-72
2021/04/25 05:36:17;;;;;;;;;;;3.50;95.90;;;;;;5031545;28;19920;-72
2021/04/25 05:38:43;;;;;;;;;;;3.60;95.70;;;;;;5049336;28;19916;-73
2021/04/25 05:41:08;;;;;;;;;;;3.70;95.70;;;;;;5037742;28;19936;-74
2021/04/25 05:43:34;;;;;;;;;;;3.90;95.60;;;;;;5033926;28;19913;-73
2021/04/25 05:45:59;;;;;;;;;;;4.00;95.60;;;;;;5034459;28;19918;-74
2021/04/25 05:48:25;;;;;;;;;;;4.20;95.20;;;;;;5035069;28;19917;-71
2021/04/25 05:50:50;;;;;;;;;;;4.40;95.10;;;;;;5036924;28;19920;-72
2021/04/25 05:53:16;;;;;;;;;;;4.50;94.70;;;;;;5032055;28;19913;-72
2021/04/25 05:55:43;;;;;;;;;;;4.70;94.40;;;;;;5034613;28;19924;-73
2021/04/25 05:58:08;;;;;;;;;;;4.80;93.60;;;;;;5032521;28;20351;-74
2021/04/25 06:00:35;;;;;;;;;;;5.00;92.80;;;;;;5035390;28;20011;-73
2021/04/25 06:03:00;;;;;;;;;;;5.10;92.10;;;;;;5026976;28;19917;-75
2021/04/25 06:05:27;;;;;;;;;;;5.30;91.50;;;;;;5034639;28;19979;-73
2021/04/25 06:07:53;;;;;;;;;;;5.40;90.80;;;;;;5031785;28;20260;-73
2021/04/25 06:10:19;;;;;;;;;;;5.40;90.30;;;;;;5014508;28;19917;-73
2021/04/25 06:12:48;;;;;;;;;;;5.60;89.80;;;;;;5033655;28;19917;-74
2021/04/25 06:15:13;;;;;;;;;;;5.70;89.60;;;;;;5028399;28;20457;-74
2021/04/25 06:17:39;;;;;;;;;;;5.80;88.80;;;;;;5015851;28;20013;-74
2021/04/25 06:20:06;;;;;;;;;;;5.80;88.70;;;;;;5013067;28;19952;-73
2021/04/25 06:22:31;;;;;;;;;;;6.00;88.50;;;;;;5033029;28;19921;-73
2021/04/25 06:24:57;;;;;;;;;;;6.00;88.10;;;;;;5032750;28;19917;-73
2021/04/25 06:27:24;;;;;;;;;;;6.10;88.00;;;;;;5032788;28;19914;-73
2021/04/25 06:29:51;;;;;;;;;;;6.20;87.70;;;;;;5032285;28;19921;-74
2021/04/25 06:32:16;;;;;;;;;;;6.20;87.50;;;;;;5033591;28;19921;-74
2021/04/25 06:34:42;;;;;;;;;;;6.30;87.90;;;;;;5034037;28;19913;-74
2021/04/25 06:37:08;;;;;;;;;;;6.40;87.40;;;;;;5034760;28;19914;-73
2021/04/25 06:39:33;;;;;;;;;;;6.60;87.00;;;;;;5034436;28;19936;-73
2021/04/25 06:42:02;;;;;;;;;;;6.70;86.70;;;;;;5040735;28;19913;-73
2021/04/25 06:44:27;;;;;;;;;;;6.80;85.70;;;;;;5042911;28;20028;-73
2021/04/25 06:46:54;;;;;;;;;;;6.90;85.30;;;;;;5038984;28;20012;-73
2021/04/25 06:49:21;;;;;;;;;;;7.00;85.00;;;;;;5015571;28;19913;-73
2021/04/25 06:51:46;;;;;;;;;;;7.00;85.00;;;;;;5031522;28;19913;-74
2021/04/25 06:54:12;;;;;;;;;;;7.10;85.10;;;;;;5008010;28;19924;-74
2021/04/25 06:56:38;;;;;;;;;;;7.30;84.60;;;;;;5017901;28;19918;-74
2021/04/25 06:59:05;;;;;;;;;;;7.30;84.60;;;;;;4998982;28;20001;-74
2021/04/25 07:01:30;;;;;;;;;;;7.40;85.00;;;;;;5015880;28;19917;-74
2021/04/25 07:03:56;;;;;;;;;;;7.40;85.10;;;;;;5015984;28;20000;-74
2021/04/25 07:06:21;;;;;;;;;;;7.60;84.60;;;;;;5015589;28;19917;-74
2021/04/25 07:08:47;;;;;;;;;;;7.80;84.10;;;;;;5016191;28;19909;-73
2021/04/25 07:11:13;;;;;;;;;;;7.90;84.50;;;;;;5016308;28;19920;-72
2021/04/25 07:13:38;;;;;;;;;;;7.90;83.60;;;;;;5013979;28;20275;-72
2021/04/25 07:16:04;;;;;;;;;;;8.10;84.00;;;;;;5014507;28;19917;-72
2021/04/25 07:18:30;;;;;;;;;;;8.20;84.00;;;;;;5012733;28;19917;-73
2021/04/25 07:20:55;;;;;;;;;;;8.40;83.20;;;;;;4998085;28;19920;-73
2021/04/25 07:23:24;;;;;;;;;;;8.40;82.70;;;;;;5016143;28;19925;-74
2021/04/25 07:25:50;;;;;;;;;;;8.40;82.50;;;;;;5015366;28;19913;-73
2021/04/25 07:28:15;;;;;;;;;;;8.40;82.50;;;;;;5018135;28;20233;-74
2021/04/25 07:30:41;;;;;;;;;;;8.50;82.50;;;;;;4998100;28;19917;-73
2021/04/25 07:33:06;;;;;;;;;;;8.60;82.60;;;;;;4998471;28;19909;-73
2021/04/25 07:35:32;;;;;;;;;;;8.80;82.40;;;;;;5012866;28;19920;-73
2021/04/25 07:37:57;;;;;;;;;;;9.00;81.20;;;;;;5002996;28;19972;-73
2021/04/25 07:40:23;;;;;;;;;;;9.10;82.20;;;;;;4997102;28;19957;-72
2021/04/25 07:42:48;;;;;;;;;;;9.10;81.90;;;;;;5004925;28;19917;-73
2021/04/25 07:45:14;;;;;;;;;;;9.20;81.30;;;;;;5016487;28;19996;-73
2021/04/25 07:47:43;;;;;;;;;;;9.60;80.90;;;;;;5016826;28;19929;-73
2021/04/25 07:50:09;;;;;;;;;;;10.40;78.10;;;;;;5007207;28;20322;-73
2021/04/25 07:52:35;;;;;;;;;;;11.60;75.00;;;;;;4993928;28;19951;-73
2021/04/25 07:55:02;;;;;;;;;;;12.60;72.10;;;;;;5017890;28;20015;-74
2021/04/25 07:57:27;;;;;;;;;;;13.60;69.20;;;;;;5013726;28;20165;-74
2021/04/25 07:59:53;;;;;;;;;;;14.20;67.60;;;;;;5008947;28;19921;-73
2021/04/25 08:02:20;;;;;;;;;;;14.80;66.40;;;;;;5014151;28;20256;-73
2021/04/25 08:04:46;;;;;;;;;;;15.00;65.50;;;;;;5003749;28;19921;-73
2021/04/25 08:07:11;;;;;;;;;;;14.90;65.40;;;;;;5015142;28;20230;-73
2021/04/25 08:09:37;;;;;;;;;;;14.90;65.60;;;;;;5016172;28;19913;-72
2021/04/25 08:12:03;;;;;;;;;;;14.90;65.80;;;;;;5016846;28;20008;-73
2021/04/25 08:14:28;;;;;;;;;;;15.00;64.20;;;;;;5016019;28;20218;-72
2021/04/25 08:16:54;;;;;;;;;;;14.90;65.30;;;;;;5011189;28;19975;-72
2021/04/25 08:19:19;;;;;;;;;;;15.20;64.40;;;;;;5010464;28;19960;-73
2021/04/25 08:21:45;;;;;;;;;;;15.30;64.70;;;;;;5009778;28;20291;-73
2021/04/25 08:24:10;;;;;;;;;;;15.30;64.20;;;;;;5015183;28;20207;-73
2021/04/25 08:26:36;;;;;;;;;;;15.30;64.20;;;;;;5046441;28;19967;-73
2021/04/25 08:29:01;;;;;;;;;;;15.80;63.60;;;;;;5014423;28;19949;-72
2021/04/25 08:31:27;;;;;;;;;;;15.80;63.80;;;;;;5016334;28;19921;-73
2021/04/25 08:33:53;;;;;;;;;;;15.90;62.80;;;;;;5011059;28;19921;-72
2021/04/25 08:36:18;;;;;;;;;;;16.20;62.80;;;;;;5014836;28;19960;-73
2021/04/25 08:38:46;;;;;;;;;;;16.40;61.30;;;;;;5029513;28;19921;-73
2021/04/25 08:41:14;;;;;;;;;;;16.20;62.00;;;;;;5032652;28;19920;-73
2021/04/25 08:43:40;;;;;;;;;;;16.90;61.40;;;;;;5035020;28;19959;-73
2021/04/25 08:46:07;;;;;;;;;;;17.70;59.60;;;;;;5034541;28;20247;-73
2021/04/25 08:48:33;;;;;;;;;;;17.70;59.40;;;;;;5034551;28;19951;-72
2021/04/25 08:50:58;;;;;;;;;;;17.50;59.40;;;;;;5027391;28;20287;-72
2021/04/25 08:53:24;;;;;;;;;;;17.30;59.40;;;;;;5030690;28;20325;-72
2021/04/25 08:55:49;;;;;;;;;;;16.90;60.30;;;;;;5013223;28;19922;-72
2021/04/25 08:58:17;;;;;;;;;;;16.60;60.70;;;;;;5013404;28;19921;-73
2021/04/25 09:00:43;;;;;;;;;;;16.60;60.90;;;;;;5011033;28;20299;-73
2021/04/25 09:03:09;;;;;;;;;;;16.80;59.70;;;;;;4990932;28;19921;-73
2021/04/25 09:05:35;;;;;;;;;;;17.10;59.90;;;;;;5011308;28;19925;-73
2021/04/25 09:08:01;;;;;;;;;;;16.80;59.50;;;;;;4995126;28;20198;-73
2021/04/25 09:10:32;;;;;;;;;;;17.40;60.20;;;;;;4994551;28;19936;-72
2021/04/25 09:12:58;;;;;;;;;;;17.80;58.00;;;;;;4992826;28;19920;-72
2021/04/25 09:15:26;;;;;;;;;;;18.00;57.70;;;;;;5013007;28;19943;-72
2021/04/25 09:17:59;;;;;;;;;;;17.50;57.70;;;;;;5008573;28;19918;-72
2021/04/25 09:20:46;;;;;;;;;;;16.90;58.80;;;;;;5012873;28;19921;-72
2021/04/25 09:23:29;;;;;;;;;;;16.80;59.30;;;;;;5011429;28;19913;-73
2021/04/25 09:26:03;;;;;;;;;;;16.80;60.40;;;;;;5012563;28;19921;-73
2021/04/25 09:28:29;;;;;;;;;;;17.30;59.70;;;;;;4991784;28;19921;-73
2021/04/25 09:31:05;;;;;;;;;;;18.00;57.90;;;;;;5011976;28;19921;-72
2021/04/25 09:33:51;;;;;;;;;;;17.80;58.10;;;;;;5012132;28;20227;-72
2021/04/25 09:36:20;;;;;;;;;;;17.70;58.10;;;;;;4994561;28;19913;-72
2021/04/25 09:38:46;;;;;;;;;;;17.80;57.80;;;;;;5014302;28;20020;-72
2021/04/25 09:41:28;;;;;;;;;;;17.80;59.40;;;;;;4996214;28;20000;-73
2021/04/25 09:43:58;;;;;;;;;;;18.50;56.60;;;;;;5018449;28;19961;-73
2021/04/25 09:46:23;;;;;;;;;;;18.30;58.00;;;;;;5007498;28;19917;-72
2021/04/25 09:48:49;;;;;;;;;;;17.90;57.80;;;;;;5011018;28;19920;-72
2021/04/25 09:51:22;;;;;;;;;;;17.60;58.30;;;;;;4995631;28;20014;-74
2021/04/25 09:53:57;;;;;;;;;;;18.20;58.30;;;;;;5018246;28;19921;-72
2021/04/25 09:56:23;;;;;;;;;;;17.80;59.10;;;;;;5026217;28;19917;-73
2021/04/25 09:58:58;;;;;;;;;;;17.50;58.70;;;;;;5021898;28;20348;-73
2021/04/25 10:01:29;;;;;;;;;;;17.70;58.30;;;;;;5023989;28;20274;-73
2021/04/25 10:03:55;;;;;;;;;;;17.90;58.00;;;;;;5020760;28;19913;-72
2021/04/25 10:06:22;;;;;;;;;;;18.10;58.40;;;;;;5025174;28;19925;-72
2021/04/25 10:08:49;;;;;;;;;;;18.70;57.30;;;;;;5022096;28;19913;-72
2021/04/25 10:11:21;;;;;;;;;;;18.30;56.30;;;;;;5020684;28;19925;-72
2021/04/25 10:13:47;;;;;;;;;;;17.80;57.10;;;;;;5015786;28;19914;-73
2021/04/25 10:16:14;;;;;;;;;;;18.20;57.90;;;;;;5015658;28;20001;-73
2021/04/25 10:18:39;;;;;;;;;;;18.80;57.30;;;;;;5025088;28;20344;-72
2021/04/25 10:21:06;;;;;;;;;;;19.20;54.40;;;;;;5001487;28;19956;-72
2021/04/25 10:23:31;;;;;;;;;;;18.80;55.60;;;;;;5034198;28;19994;-72
2021/04/25 10:25:57;;;;;;;;;;;18.40;54.90;;;;;;5025198;28;20306;-72
2021/04/25 10:28:46;;;;;;;;;;;18.40;55.50;;;;;;5011200;28;19924;-71
2021/04/25 10:31:17;;;;;;;;;;;18.30;55.00;;;;;;4996644;28;20268;-70
2021/04/25 10:34:00;;;;;;;;;;;18.80;54.90;;;;;;5015333;28;20002;-71
2021/04/25 10:36:55;;;;;;;;;;;19.70;53.30;;;;;;5033094;28;19967;-72
2021/04/25 10:39:36;;;;;;;;;;;19.80;53.70;;;;;;5003558;28;20626;-71
2021/04/25 10:45:07;;;;;;;;;;;19.00;52.90;;;;;;5028879;28;20008;-73
2021/04/25 10:47:37;;;;;;;;;;;18.50;53.90;;;;;;5024643;28;19921;-72
2021/04/25 10:50:09;;;;;;;;;;;18.10;53.90;;;;;;5029166;28;19920;-73
2021/04/25 10:52:35;;;;;;;;;;;18.30;55.80;;;;;;5034217;28;19917;-73
2021/04/25 10:55:13;;;;;;;;;;;18.70;54.00;;;;;;5032977;28;20353;-73
2021/04/25 10:58:00;;;;;;;;;;;19.00;51.90;;;;;;5036670;28;19987;-73
2021/04/25 11:00:32;;;;;;;;;;;18.70;51.40;;;;;;5033932;28;19932;-72
2021/04/25 11:03:07;;;;;;;;;;;18.40;51.90;;;;;;5017506;28;19971;-72
2021/04/25 11:05:35;;;;;;;;;;;18.60;51.50;;;;;;5016078;28;20334;-73
2021/04/25 11:08:02;;;;;;;;;;;19.10;51.40;;;;;;5033667;28;20035;-73
2021/04/25 11:10:51;;;;;;;;;;;18.50;50.90;;;;;;5033433;28;19913;-72
2021/04/25 11:13:35;;;;;;;;;;;18.10;54.00;;;;;;5033522;28;20333;-72
2021/04/25 11:16:04;;;;;;;;;;;17.90;53.80;;;;;;5030347;28;19913;-72
2021/04/25 11:18:49;;;;;;;;;;;18.10;52.30;;;;;;5031362;28;19921;-72
2021/04/25 11:23:59;;;;;;;;;;;17.90;51.90;;;;;;5034958;28;20234;-73
2021/04/25 11:26:34;;;;;;;;;;;18.00;53.80;;;;;;5034195;28;19964;-72
2021/04/25 11:29:01;;;;;;;;;;;17.90;54.10;;;;;;5032410;28;19924;-72
2021/04/25 11:31:49;;;;;;;;;;;18.30;54.30;;;;;;5035908;28;19913;-72
2021/04/25 11:34:31;;;;;;;;;;;18.40;52.20;;;;;;5017227;28;19928;-71
2021/04/25 11:37:04;;;;;;;;;;;18.00;52.50;;;;;;5031118;28;19917;-72
2021/04/25 11:39:40;;;;;;;;;;;18.10;52.10;;;;;;5033108;28;20256;-72
2021/04/25 11:42:07;;;;;;;;;;;18.50;48.90;;;;;;5018399;28;20210;-72
2021/04/25 11:44:36;;;;;;;;;;;18.40;49.40;;;;;;5035848;28;19917;-72
2021/04/25 11:47:06;;;;;;;;;;;18.30;50.10;;;;;;5034581;28;19944;-73
2021/04/25 11:49:32;;;;;;;;;;;18.00;50.40;;;;;;5032752;28;20563;-73
2021/04/25 11:52:14;;;;;;;;;;;18.30;50.90;;;;;;5034624;28;20008;-73
2021/04/25 11:54:41;;;;;;;;;;;17.70;51.50;;;;;;5035919;28;20211;-72
2021/04/25 11:57:20;;;;;;;;;;;17.20;52.60;;;;;;5018535;28;19913;-72
2021/04/25 11:59:54;;;;;;;;;;;17.00;53.40;;;;;;5036549;28;19917;-72
2021/04/25 12:02:20;;;;;;;;;;;17.40;53.10;;;;;;5036778;28;19913;-72
2021/04/25 12:04:46;;;;;;;;;;;17.60;51.50;;;;;;5036453;28;19917;-72
2021/04/25 12:07:12;;;;;;;;;;;17.70;52.50;;;;;;5030386;28;20059;-72
2021/04/25 12:09:38;;;;;;;;;;;17.50;50.90;;;;;;5026182;28;20390;-72
2021/04/25 12:12:07;;;;;;;;;;;17.10;52.80;;;;;;5033811;28;19913;-73
2021/04/25 12:14:33;;;;;;;;;;;17.30;53.60;;;;;;5031365;28;19917;-72
2021/04/25 12:17:11;;;;;;;;;;;17.50;55.00;;;;;;5029866;28;19913;-73
2021/04/25 12:19:37;;;;;;;;;;;17.10;55.80;;;;;;5027774;28;20618;-73
2021/04/25 12:22:03;;;;;;;;;;;16.80;55.40;;;;;;5026118;28;19975;-72
2021/04/25 12:24:28;;;;;;;;;;;16.90;55.80;;;;;;5025530;28;19935;-73
2021/04/25 12:26:54;;;;;;;;;;;17.00;56.90;;;;;;5027418;28;19921;-72
2021/04/25 12:29:34;;;;;;;;;;;17.30;55.20;;;;;;5027697;28;19932;-73
2021/04/25 12:32:00;;;;;;;;;;;17.10;54.70;;;;;;5009435;28;20269;-72
2021/04/25 12:34:31;;;;;;;;;;;17.10;53.60;;;;;;5025711;28;20226;-73
2021/04/25 12:36:59;;;;;;;;;;;17.30;53.40;;;;;;5026910;28;20218;-72
2021/04/25 12:39:41;;;;;;;;;;;17.30;54.40;;;;;;5002675;28;20011;-72
2021/04/25 12:42:19;;;;;;;;;;;17.60;53.80;;;;;;5025048;28;19922;-72
2021/04/25 12:44:45;;;;;;;;;;;17.80;52.00;;;;;;5025411;28;20037;-72
2021/04/25 12:47:12;;;;;;;;;;;17.50;51.50;;;;;;5027849;28;20008;-73
2021/04/25 12:49:38;;;;;;;;;;;17.20;51.70;;;;;;5021763;28;19965;-73
2021/04/25 12:52:05;;;;;;;;;;;17.20;53.60;;;;;;5020215;28;19913;-73
2021/04/25 12:54:46;;;;;;;;;;;17.40;50.80;;;;;;5023452;28;20330;-72
2021/04/25 12:57:13;;;;;;;;;;;17.90;51.40;;;;;;5029718;28;20050;-72
2021/04/25 12:59:39;;;;;;;;;;;17.70;50.30;;;;;;5021073;28;19921;-72
2021/04/25 13:02:06;;;;;;;;;;;17.30;49.60;;;;;;5007132;28;19927;-72
2021/04/25 13:04:45;;;;;;;;;;;17.70;48.70;;;;;;5024209;28;19929;-73
2021/04/25 13:07:20;;;;;;;;;;;18.20;48.20;;;;;;5024479;28;19921;-73
2021/04/25 13:09:54;;;;;;;;;;;18.10;48.40;;;;;;5011848;28;19927;-74
2021/04/25 13:12:30;;;;;;;;;;;17.80;49.70;;;;;;5034085;28;20312;-74
2021/04/25 13:15:04;;;;;;;;;;;18.00;50.10;;;;;;5032745;28;19920;-74
2021/04/25 13:17:31;;;;;;;;;;;18.30;48.30;;;;;;5029805;28;20293;-73
2021/04/25 13:19:58;;;;;;;;;;;18.50;47.20;;;;;;5030877;28;19983;-73
2021/04/25 13:22:27;;;;;;;;;;;18.60;47.30;;;;;;5027474;28;20616;-73
2021/04/25 13:24:53;;;;;;;;;;;18.50;47.10;;;;;;5034621;28;19935;-73
2021/04/25 13:27:20;;;;;;;;;;;18.70;48.60;;;;;;5024657;28;19913;-74
2021/04/25 13:29:47;;;;;;;;;;;19.10;47.20;;;;;;5024705;28;19917;-74
2021/04/25 13:32:13;;;;;;;;;;;19.80;46.20;;;;;;5023998;28;19978;-73
2021/04/25 13:34:38;;;;;;;;;;;20.40;43.40;;;;;;5026001;28;19917;-73
2021/04/25 13:37:05;;;;;;;;;;;20.00;45.50;;;;;;5025651;28;19932;-73
2021/04/25 13:39:30;;;;;;;;;;;19.60;46.20;;;;;;5029910;28;19917;-73
2021/04/25 13:41:56;;;;;;;;;;;19.60;46.20;;;;;;5029153;28;20258;-73
2021/04/25 13:44:22;;;;;;;;;;;19.90;49.30;;;;;;5028424;28;19921;-73
2021/04/25 13:46:48;;;;;;;;;;;20.20;46.30;;;;;;5029840;28;20276;-73
2021/04/25 13:49:13;;;;;;;;;;;20.20;46.80;;;;;;5030440;28;19917;-74
2021/04/25 13:51:39;;;;;;;;;;;20.50;47.60;;;;;;5016257;28;19921;-73
2021/04/25 13:54:08;;;;;;;;;;;20.80;45.10;;;;;;5020487;28;19961;-73
2021/04/25 13:56:34;;;;;;;;;;;20.20;45.20;;;;;;5024329;28;19917;-73
2021/04/25 13:58:59;;;;;;;;;;;20.00;45.20;;;;;;5022198;28;19917;-73
2021/04/25 14:01:25;;;;;;;;;;;19.90;45.10;;;;;;5019308;28;19921;-73
2021/04/25 14:03:50;;;;;;;;;;;20.30;43.60;;;;;;5018089;28;19913;-73
2021/04/25 14:06:16;;;;;;;;;;;20.20;42.60;;;;;;5020705;28;19929;-73
2021/04/25 14:08:43;;;;;;;;;;;19.90;42.60;;;;;;5020716;28;19921;-72
2021/04/25 14:11:09;;;;;;;;;;;20.10;43.60;;;;;;5023243;28;19921;-73
2021/04/25 14:13:35;;;;;;;;;;;20.10;44.20;;;;;;5020741;28;19978;-73
2021/04/25 14:16:01;;;;;;;;;;;20.10;44.20;;;;;;5022562;28;19920;-72
2021/04/25 14:18:28;;;;;;;;;;;20.20;43.10;;;;;;5022896;28;20322;-73
2021/04/25 14:20:54;;;;;;;;;;;19.70;44.10;;;;;;5018500;28;20380;-73
2021/04/25 14:23:19;;;;;;;;;;;19.50;42.60;;;;;;5020465;28;19921;-73
2021/04/25 14:25:47;;;;;;;;;;;19.10;43.50;;;;;;5001427;28;19921;-74
2021/04/25 14:28:13;;;;;;;;;;;19.20;43.60;;;;;;5003187;28;19917;-73
2021/04/25 14:30:39;;;;;;;;;;;19.50;44.10;;;;;;5024714;28;19921;-73